Time;durP1;ratioP1;P1;durP2;ratioP2;P2;SDS_P1;SDS_P2;PMS_P1;PMS_P2;Temp;Humidity;BMP_temperature;BMP_pressure;BME280_temperature;BME280_humidity;BME280_pressure;Samples;Min_cycle;Max_cycle;Signal;HPM_P1;HPM_P2
2021/10/03 00:01:16;;;;;;;11.50;8.75;;;;;;;5.98;75.69;101552.80;1796435;78;21061;-73
2021/10/03 00:03:46;;;;;;;12.75;8.63;;;;;;;5.99;75.78;101545.32;1790780;78;21373;-75
2021/10/03 00:06:13;;;;;;;11.60;8.65;;;;;;;6.04;75.81;101551.67;1795955;78;21007;-75
2021/10/03 00:08:39;;;;;;;12.23;8.08;;;;;;;6.06;75.84;101554.23;1804748;78;21084;-74
2021/10/03 00:11:06;;;;;;;10.25;7.75;;;;;;;6.08;75.86;101546.71;1806907;78;21769;-75
2021/10/03 00:13:34;;;;;;;12.18;8.20;;;;;;;6.11;75.87;101552.28;1803104;78;20867;-75
2021/10/03 00:16:01;;;;;;;11.75;7.72;;;;;;;6.06;75.85;101548.98;1757680;81;20932;-74
2021/10/03 00:18:28;;;;;;;11.63;8.33;;;;;;;6.06;75.93;101546.36;1824279;78;20971;-74
2021/10/03 00:20:56;;;;;;;12.78;7.78;;;;;;;6.08;75.99;101553.27;1826961;78;20951;-75
2021/10/03 00:23:23;;;;;;;11.65;7.87;;;;;;;6.10;76.01;101552.73;1824634;78;22255;-75
2021/10/03 00:25:50;;;;;;;10.78;7.60;;;;;;;6.13;76.04;101543.88;1794761;78;20983;-75
2021/10/03 00:28:17;;;;;;;10.53;7.95;;;;;;;6.15;76.02;101537.64;1773669;78;21050;-74
2021/10/03 00:30:43;;;;;;;13.35;7.95;;;;;;;6.17;75.93;101538.42;1801274;78;21380;-74
2021/10/03 00:33:10;;;;;;;10.65;7.72;;;;;;;6.18;75.90;101539.30;1826701;78;21049;-73
2021/10/03 00:35:37;;;;;;;12.55;8.55;;;;;;;6.21;75.86;101539.16;1817187;78;22234;-75
2021/10/03 00:38:07;;;;;;;14.38;8.23;;;;;;;6.26;75.79;101542.42;1751147;81;20948;-73
2021/10/03 00:40:34;;;;;;;11.55;7.97;;;;;;;6.26;75.70;101540.66;1737289;81;21037;-73
2021/10/03 00:43:01;;;;;;;10.60;7.70;;;;;;;6.25;75.69;101538.95;1746372;80;21446;-74
2021/10/03 00:45:29;;;;;;;9.65;7.45;;;;;;;6.26;75.69;101539.34;1757619;80;21031;-75
2021/10/03 00:47:55;;;;;;;12.30;7.92;;;;;;;6.25;75.65;101542.89;1796308;78;22174;-75
2021/10/03 00:50:22;;;;;;;12.68;7.70;;;;;;;6.20;75.61;101541.40;1733426;81;21546;-74
2021/10/03 00:52:49;;;;;;;9.70;7.72;;;;;;;6.19;75.63;101540.55;1760051;80;21071;-73
2021/10/03 00:55:17;;;;;;;11.43;7.22;;;;;;;6.13;75.68;101538.17;1762315;80;21019;-73
2021/10/03 00:57:45;;;;;;;9.70;7.70;;;;;;;6.10;75.83;101538.31;1721358;80;20943;-73
2021/10/03 01:00:13;;;;;;;10.90;7.85;;;;;;;6.07;75.92;101546.29;1803714;78;22158;-75
2021/10/03 01:02:41;;;;;;;9.70;7.08;;;;;;;6.07;76.02;101545.44;1800697;78;20959;-76
2021/10/03 01:05:08;;;;;;;9.68;7.05;;;;;;;6.06;76.04;101545.90;1763030;80;21005;-75
2021/10/03 01:07:37;;;;;;;11.63;7.53;;;;;;;6.04;76.08;101549.05;1732677;81;20937;-75
2021/10/03 01:10:09;;;;;;;11.48;7.25;;;;;;;6.06;76.21;101552.45;1756627;81;21009;-73
2021/10/03 01:12:36;;;;;;;10.88;7.53;;;;;;;6.06;76.22;101549.83;1739083;81;22652;-73
2021/10/03 01:15:04;;;;;;;9.88;7.40;;;;;;;6.05;76.33;101556.00;1754634;81;21081;-73
2021/10/03 01:17:32;;;;;;;10.28;7.60;;;;;;;6.02;76.40;101551.74;1728523;81;21366;-74
2021/10/03 01:19:59;;;;;;;11.43;7.65;;;;;;;6.05;76.60;101553.38;1726957;81;20979;-74
2021/10/03 01:22:26;;;;;;;9.90;6.92;;;;;;;6.11;76.84;101553.13;1726624;81;21040;-74
2021/10/03 01:24:53;;;;;;;10.25;7.35;;;;;;;6.17;76.94;101543.67;1729191;81;22188;-75
2021/10/03 01:27:21;;;;;;;10.63;6.90;;;;;;;6.19;76.92;101547.56;1726857;81;21423;-75
2021/10/03 01:29:49;;;;;;;8.53;7.47;;;;;;;6.17;76.95;101546.30;1743028;81;20995;-75
2021/10/03 01:32:17;;;;;;;12.20;7.65;;;;;;;6.20;77.17;101539.63;1727448;81;21102;-74
2021/10/03 01:34:44;;;;;;;10.43;8.10;;;;;;;6.30;77.35;101540.94;1727104;81;21008;-75
2021/10/03 01:37:11;;;;;;;11.33;7.65;;;;;;;6.38;77.33;101545.02;1742217;80;21811;-73
2021/10/03 01:39:39;;;;;;;10.32;7.97;;;;;;;6.41;77.32;101548.80;1728711;81;20924;-74
2021/10/03 01:42:05;;;;;;;9.58;7.03;;;;;;;6.48;77.33;101555.50;1755611;80;21015;-75
2021/10/03 01:44:33;;;;;;;10.03;7.25;;;;;;;6.47;77.22;101549.40;1736080;81;21048;-75
2021/10/03 01:47:00;;;;;;;9.93;7.33;;;;;;;6.45;77.12;101546.42;1753424;81;21040;-74
2021/10/03 01:49:27;;;;;;;11.83;7.62;;;;;;;6.44;77.17;101546.88;1743987;80;21786;-74
2021/10/03 01:51:54;;;;;;;9.55;7.03;;;;;;;6.42;77.17;101540.86;1755486;81;21351;-73
2021/10/03 01:54:21;;;;;;;8.50;6.95;;;;;;;6.42;77.15;101546.56;1726937;81;21001;-73
2021/10/03 01:56:47;;;;;;;10.05;8.05;;;;;;;6.36;77.08;101544.20;1727865;79;21012;-75
2021/10/03 01:59:13;;;;;;;10.55;7.40;;;;;;;6.33;77.10;101534.69;1745397;81;21007;-75
2021/10/03 02:01:43;;;;;;;9.00;7.17;;;;;;;6.31;77.07;101541.78;1758664;80;22285;-74
2021/10/03 02:04:20;;;;;;;9.95;6.95;;;;;;;6.25;77.04;101538.95;1762933;80;21007;-73
2021/10/03 02:06:50;;;;;;;9.98;6.70;;;;;;;6.23;77.13;101538.17;1766483;80;21493;-74
2021/10/03 02:09:19;;;;;;;9.60;7.05;;;;;;;6.20;77.04;101547.95;1765303;80;20995;-76
2021/10/03 02:11:54;;;;;;;9.18;7.08;;;;;;;6.11;76.97;101550.50;1756999;80;20946;-74
2021/10/03 02:14:21;;;;;;;9.35;7.05;;;;;;;6.01;76.95;101540.86;1756822;80;21841;-74
2021/10/03 02:16:48;;;;;;;9.18;6.95;;;;;;;5.98;77.01;101541.42;1756512;81;20895;-73
2021/10/03 02:19:14;;;;;;;10.23;7.80;;;;;;;5.96;77.00;101543.27;1765600;80;20945;-74
2021/10/03 02:21:40;;;;;;;12.25;7.97;;;;;;;5.95;77.14;101552.91;1767119;80;20990;-75
2021/10/03 02:24:07;;;;;;;9.73;7.50;;;;;;;5.95;77.20;101548.12;1756957;80;21065;-75
2021/10/03 02:26:34;;;;;;;12.13;7.42;;;;;;;5.95;77.26;101553.36;1761530;80;22274;-75
2021/10/03 02:29:00;;;;;;;10.48;8.20;;;;;;;5.97;77.31;101553.69;1757549;80;20936;-73
2021/10/03 02:31:27;;;;;;;9.05;7.50;;;;;;;5.97;77.31;101551.52;1754624;81;21000;-74
2021/10/03 02:33:53;;;;;;;10.13;7.47;;;;;;;5.97;77.36;101556.31;1755696;80;20995;-74
2021/10/03 02:36:21;;;;;;;12.55;7.62;;;;;;;5.97;77.36;101551.52;1765424;80;21058;-75
2021/10/03 02:38:49;;;;;;;10.68;8.03;;;;;;;5.95;77.32;101549.43;1770426;80;21825;-75
2021/10/03 02:41:16;;;;;;;10.28;7.75;;;;;;;5.92;77.31;101557.44;1786049;79;21027;-73
2021/10/03 02:43:46;;;;;;;12.15;8.13;;;;;;;5.89;77.35;101550.52;1784552;80;20943;-75
2021/10/03 02:46:13;;;;;;;10.53;8.15;;;;;;;5.89;77.32;101556.23;1759298;80;20947;-73
2021/10/03 02:48:40;;;;;;;11.20;8.23;;;;;;;5.88;77.29;101563.67;1784571;79;20992;-73
2021/10/03 02:51:07;;;;;;;13.60;8.75;;;;;;;5.87;77.18;101557.57;1785129;80;22646;-74
2021/10/03 02:53:34;;;;;;;10.65;8.38;;;;;;;5.87;77.08;101554.09;1763280;80;20983;-74
2021/10/03 02:56:00;;;;;;;10.53;8.30;;;;;;;5.87;77.02;101554.95;1770989;80;21003;-74
2021/10/03 02:58:27;;;;;;;10.88;8.43;;;;;;;5.91;76.98;101558.36;1786795;80;21010;-75
2021/10/03 03:00:55;;;;;;;10.43;8.50;;;;;;;5.91;76.90;101563.59;1767959;80;21421;-75
2021/10/03 03:03:22;;;;;;;11.43;8.60;;;;;;;5.92;76.87;101555.66;1738645;81;22243;-75
2021/10/03 03:05:49;;;;;;;11.78;8.20;;;;;;;5.94;76.77;101559.53;1754978;81;21031;-74
2021/10/03 03:08:15;;;;;;;10.55;8.40;;;;;;;5.91;76.70;101559.66;1754843;80;21362;-74
2021/10/03 03:10:42;;;;;;;12.47;8.08;;;;;;;5.94;76.68;101559.53;1727355;81;20968;-74
2021/10/03 03:13:08;;;;;;;11.95;8.05;;;;;;;5.94;76.65;101559.53;1773389;80;21056;-74
2021/10/03 03:15:34;;;;;;;10.43;8.13;;;;;;;5.93;76.61;101563.92;1754597;80;22175;-74
2021/10/03 03:18:00;;;;;;;10.40;8.05;;;;;;;5.91;76.58;101560.52;1727205;81;20956;-73
2021/10/03 03:20:27;;;;;;;11.28;8.10;;;;;;;5.89;76.53;101558.39;1755883;80;21461;-74
2021/10/03 03:22:53;;;;;;;11.75;8.05;;;;;;;5.88;76.47;101557.11;1739122;81;20968;-74
2021/10/03 03:25:20;;;;;;;10.25;7.97;;;;;;;5.87;76.43;101561.50;1726993;81;21012;-73
2021/10/03 03:27:47;;;;;;;13.55;7.75;;;;;;;5.85;76.37;101566.42;1759538;80;22209;-74
2021/10/03 03:30:13;;;;;;;10.00;7.83;;;;;;;5.82;76.33;101567.41;1769165;80;20941;-74
2021/10/03 03:32:40;;;;;;;12.37;8.10;;;;;;;5.82;76.33;101567.88;1754156;80;21494;-74
2021/10/03 03:35:08;;;;;;;13.28;7.97;;;;;;;5.80;76.29;101565.78;1727617;81;21035;-73
2021/10/03 03:37:36;;;;;;;11.68;8.48;;;;;;;5.76;76.22;101563.72;1755545;80;20980;-75
2021/10/03 03:40:06;;;;;;;12.03;8.08;;;;;;;5.73;76.18;101559.92;1753509;81;21844;-75
2021/10/03 03:42:33;;;;;;;10.85;8.48;;;;;;;5.68;76.15;101560.08;1726574;83;20936;-73
2021/10/03 03:44:59;;;;;;;10.78;8.40;;;;;;;5.66;76.13;101561.06;1698229;81;21053;-75
2021/10/03 03:47:26;;;;;;;11.03;8.18;;;;;;;5.63;76.15;101568.61;1760935;80;21628;-75
2021/10/03 03:49:52;;;;;;;9.53;8.08;;;;;;;5.61;76.15;101571.75;1761733;80;21419;-74
2021/10/03 03:52:20;;;;;;;10.00;8.18;;;;;;;5.59;76.16;101569.63;1759902;80;21745;-75
2021/10/03 03:54:46;;;;;;;12.60;8.35;;;;;;;5.58;76.17;101575.78;1729116;81;21036;-75
2021/10/03 03:57:13;;;;;;;13.13;8.70;;;;;;;5.57;76.16;101575.84;1756755;81;20920;-73
2021/10/03 03:59:39;;;;;;;11.60;9.30;;;;;;;5.53;76.15;101576.44;1761090;80;21004;-75
2021/10/03 04:02:06;;;;;;;10.45;9.13;;;;;;;5.46;76.09;101576.27;1781334;80;21496;-75
2021/10/03 04:04:32;;;;;;;12.28;9.15;;;;;;;5.40;76.05;101577.80;1763370;80;21813;-74
2021/10/03 04:06:59;;;;;;;11.30;9.25;;;;;;;5.38;76.09;101577.88;1744309;81;21439;-75
2021/10/03 04:09:26;;;;;;;13.53;9.18;;;;;;;5.37;76.09;101572.70;1733271;80;21705;-75
2021/10/03 04:11:52;;;;;;;11.55;9.08;;;;;;;5.35;76.09;101571.91;1821561;78;20979;-74
2021/10/03 04:14:19;;;;;;;9.93;8.28;;;;;;;5.32;76.17;101582.06;1812226;78;21040;-74
2021/10/03 04:16:45;;;;;;;10.82;8.98;;;;;;;5.32;76.22;101581.20;1791668;78;21832;-74
2021/10/03 04:19:12;;;;;;;14.98;8.43;;;;;;;5.31;76.29;101581.66;1762289;80;21364;-74
2021/10/03 04:21:38;;;;;;;12.23;8.80;;;;;;;5.33;76.33;101580.29;1749298;80;21061;-74
2021/10/03 04:24:05;;;;;;;10.20;7.83;;;;;;;5.32;76.36;101585.14;1786994;80;21071;-75
2021/10/03 04:26:32;;;;;;;10.72;8.73;;;;;;;5.29;76.41;101582.61;1776209;80;21051;-75
2021/10/03 04:28:58;;;;;;;12.23;8.60;;;;;;;5.27;76.45;101588.38;1768544;80;22195;-75
2021/10/03 04:31:25;;;;;;;11.65;8.90;;;;;;;5.30;76.53;101586.94;1801371;78;20951;-73
2021/10/03 04:33:51;;;;;;;12.15;9.85;;;;;;;5.30;76.66;101583.86;1818689;78;21051;-75
2021/10/03 04:36:18;;;;;;;11.30;9.05;;;;;;;5.35;76.76;101588.48;1797820;78;21482;-75
2021/10/03 04:38:44;;;;;;;12.00;8.70;;;;;;;5.40;76.91;101590.91;1781019;79;20841;-73
2021/10/03 04:41:10;;;;;;;12.43;9.33;;;;;;;5.44;76.99;101593.83;1762845;80;22154;-74
2021/10/03 04:43:37;;;;;;;14.35;10.13;;;;;;;5.45;77.01;101590.29;1762812;80;21079;-75
2021/10/03 04:46:03;;;;;;;11.03;9.83;;;;;;;5.52;77.18;101594.39;1792025;78;21000;-74
2021/10/03 04:48:30;;;;;;;11.70;9.55;;;;;;;5.57;77.21;101592.42;1798065;78;20964;-73
2021/10/03 04:50:56;;;;;;;15.28;9.40;;;;;;;5.59;77.24;101593.21;1810388;78;21082;-74
2021/10/03 04:53:23;;;;;;;12.05;9.70;;;;;;;5.61;77.24;101601.04;1799018;78;21724;-74
2021/10/03 04:55:49;;;;;;;13.15;9.13;;;;;;;5.61;77.25;101599.27;1820116;78;20995;-75
2021/10/03 04:58:16;;;;;;;12.47;9.10;;;;;;;5.60;77.32;101606.73;1798652;78;21026;-73
2021/10/03 05:00:42;;;;;;;15.85;8.90;;;;;;;5.62;77.39;101602.28;1823806;78;20947;-74
2021/10/03 05:03:09;;;;;;;11.30;8.78;;;;;;;5.68;77.54;101610.34;1806150;78;21425;-73
2021/10/03 05:05:36;;;;;;;10.98;8.83;;;;;;;5.75;77.60;101611.82;1757329;81;21722;-74
2021/10/03 05:08:04;;;;;;;10.53;8.40;;;;;;;5.83;77.67;101608.91;1773355;81;20963;-74
2021/10/03 05:10:30;;;;;;;12.33;8.68;;;;;;;5.95;77.81;101609.74;1743772;81;20989;-74
2021/10/03 05:12:57;;;;;;;17.07;9.35;;;;;;;6.08;77.97;101608.78;1743745;81;21042;-74
2021/10/03 05:15:25;;;;;;;14.03;9.25;;;;;;;6.18;78.08;101610.98;1743019;81;20936;-74
2021/10/03 05:17:51;;;;;;;14.68;9.20;;;;;;;6.31;78.23;101612.63;1761948;80;22173;-74
2021/10/03 05:20:17;;;;;;;11.40;8.85;;;;;;;6.47;78.35;101613.70;1750221;81;20983;-75
2021/10/03 05:22:44;;;;;;;11.55;9.20;;;;;;;6.61;78.44;101602.59;1745393;81;21529;-76
2021/10/03 05:25:10;;;;;;;11.60;9.05;;;;;;;6.76;78.53;101602.41;1743502;81;21502;-73
2021/10/03 05:27:37;;;;;;;11.18;8.70;;;;;;;6.89;78.59;101600.47;1734925;81;20979;-74
2021/10/03 05:30:05;;;;;;;13.53;8.70;;;;;;;7.05;78.66;101607.67;1772672;81;22176;-73
2021/10/03 05:32:33;;;;;;;11.95;8.68;;;;;;;7.19;78.65;101603.95;1765248;81;20952;-73
2021/10/03 05:35:01;;;;;;;15.50;9.10;;;;;;;7.31;78.61;101596.80;1748720;81;20956;-74
2021/10/03 05:37:27;;;;;;;13.60;8.70;;;;;;;7.44;78.54;101597.11;1754781;79;21019;-75
2021/10/03 05:39:55;;;;;;;12.15;8.80;;;;;;;7.57;78.49;101600.85;1772258;81;21039;-74
2021/10/03 05:42:21;;;;;;;11.53;8.43;;;;;;;7.68;78.43;101606.45;1772603;81;22177;-74
2021/10/03 05:44:48;;;;;;;12.40;8.48;;;;;;;7.81;78.33;101613.28;1771804;81;20968;-74
2021/10/03 05:47:14;;;;;;;10.85;8.98;;;;;;;7.92;78.19;101617.59;1753768;81;21046;-74
2021/10/03 05:49:42;;;;;;;14.68;8.55;;;;;;;8.03;78.09;101611.80;1780093;80;21236;-73
2021/10/03 05:52:08;;;;;;;9.93;7.67;;;;;;;8.14;77.98;101616.06;1771232;80;21023;-74
2021/10/03 05:54:35;;;;;;;11.93;7.70;;;;;;;8.26;77.83;101618.55;1762049;81;21758;-74
2021/10/03 05:57:01;;;;;;;11.43;7.78;;;;;;;8.35;77.65;101612.85;1768017;80;21392;-74
2021/10/03 05:59:27;;;;;;;12.68;7.85;;;;;;;8.44;77.33;101618.97;1767880;80;21479;-74
2021/10/03 06:01:54;;;;;;;13.58;7.62;;;;;;;8.52;77.12;101615.48;1760367;80;20964;-74
2021/10/03 06:04:21;;;;;;;12.18;8.13;;;;;;;8.60;76.92;101613.79;1717259;81;20949;-74
2021/10/03 06:06:47;;;;;;;16.32;8.30;;;;;;;8.69;76.78;101609.83;1748968;81;22128;-75
2021/10/03 06:09:14;;;;;;;13.28;8.13;;;;;;;8.78;76.60;101610.20;1745879;81;21038;-72
2021/10/03 06:11:40;;;;;;;11.50;8.43;;;;;;;8.91;76.41;101618.30;1757513;81;20983;-75
2021/10/03 06:14:07;;;;;;;10.65;8.08;;;;;;;9.00;76.15;101621.77;1744703;81;21062;-75
2021/10/03 06:16:34;;;;;;;10.93;7.60;;;;;;;9.12;75.96;101622.91;1741360;81;21425;-74
2021/10/03 06:19:00;;;;;;;10.88;7.75;;;;;;;9.22;75.72;101617.98;1741927;81;21816;-74
2021/10/03 06:21:27;;;;;;;9.70;7.85;;;;;;;9.31;75.42;101616.17;1755633;81;21007;-75
2021/10/03 06:23:53;;;;;;;9.10;7.15;;;;;;;9.38;75.07;101617.55;1733644;82;21015;-75
2021/10/03 06:26:19;;;;;;;12.60;8.20;;;;;;;9.45;74.63;101622.85;1733837;81;21015;-74
2021/10/03 06:28:46;;;;;;;9.95;7.78;;;;;;;9.49;74.25;101623.08;1751769;81;21089;-74
2021/10/03 06:31:12;;;;;;;10.20;7.90;;;;;;;9.53;73.83;101622.44;1733990;81;21705;-75
2021/10/03 06:33:40;;;;;;;11.45;7.97;;;;;;;9.58;73.65;101623.05;1739325;81;21031;-75
2021/10/03 06:36:06;;;;;;;9.58;7.35;;;;;;;9.65;73.46;101616.03;1736965;81;21039;-73
2021/10/03 06:38:33;;;;;;;11.75;7.65;;;;;;;9.75;73.25;101620.33;1763625;81;21035;-72
2021/10/03 06:41:00;;;;;;;10.93;7.40;;;;;;;9.88;73.01;101621.80;1764242;79;20996;-75
2021/10/03 06:43:26;;;;;;;13.20;7.28;;;;;;;9.96;72.56;101618.26;1747676;81;21813;-74
2021/10/03 06:45:53;;;;;;;10.35;7.62;;;;;;;10.02;72.14;101621.38;1747744;81;21064;-74
2021/10/03 06:48:19;;;;;;;15.70;7.58;;;;;;;10.07;71.71;101613.21;1742985;81;20991;-73
2021/10/03 06:50:45;;;;;;;9.95;7.72;;;;;;;10.15;71.44;101615.41;1739548;81;21225;-70
2021/10/03 06:53:12;;;;;;;10.53;7.60;;;;;;;10.19;71.01;101611.17;1738355;81;21031;-73
2021/10/03 06:55:38;;;;;;;9.78;7.70;;;;;;;10.25;70.78;101613.50;1738275;81;22659;-73
2021/10/03 06:58:05;;;;;;;11.50;7.97;;;;;;;10.35;70.64;101606.36;1750917;81;21014;-71
2021/10/03 07:00:31;;;;;;;12.05;7.87;;;;;;;10.46;70.43;101610.54;1735735;81;21074;-72
2021/10/03 07:02:58;;;;;;;11.50;7.33;;;;;;;10.56;70.29;101609.05;1759844;80;21078;-72
2021/10/03 07:05:24;;;;;;;12.05;7.42;;;;;;;10.66;69.95;101604.91;1760995;80;21138;-72
2021/10/03 07:07:51;;;;;;;9.88;7.67;;;;;;;10.71;69.46;101603.30;1749388;80;22989;-72
2021/10/03 07:10:17;;;;;;;11.30;8.00;;;;;;;10.75;68.96;101609.64;1764120;80;21406;-72
2021/10/03 07:12:44;;;;;;;12.53;8.10;;;;;;;10.79;68.42;101611.62;1820240;78;21073;-72
2021/10/03 07:15:11;;;;;;;10.95;7.05;;;;;;;10.87;68.32;101613.33;1779473;80;20999;-69
2021/10/03 07:17:38;;;;;;;9.40;7.22;;;;;;;10.96;68.09;101617.20;1761562;80;21018;-70
2021/10/03 07:20:06;;;;;;;10.90;7.85;;;;;;;11.06;67.74;101611.26;1739166;81;22209;-70
2021/10/03 07:22:33;;;;;;;10.63;7.80;;;;;;;11.16;67.28;101604.92;1772962;80;21098;-72
2021/10/03 07:24:59;;;;;;;12.80;7.78;;;;;;;11.27;67.08;101609.07;1767397;80;21047;-72
2021/10/03 07:27:25;;;;;;;10.30;7.80;;;;;;;11.36;66.63;101609.81;1790638;80;20999;-71
2021/10/03 07:29:52;;;;;;;9.90;7.50;;;;;;;11.42;66.38;101606.80;1782247;80;21035;-73
2021/10/03 07:32:19;;;;;;;8.95;7.30;;;;;;;11.54;66.32;101610.92;1758116;80;22478;-72
2021/10/03 07:34:45;;;;;;;9.70;7.12;;;;;;;11.65;65.91;101613.25;1784788;80;21634;-73
2021/10/03 07:37:12;;;;;;;10.75;7.05;;;;;;;11.78;65.52;101612.48;1801287;78;21461;-74
2021/10/03 07:39:38;;;;;;;11.18;7.00;;;;;;;11.87;65.26;101610.57;1809223;78;22243;-72
2021/10/03 07:42:05;;;;;;;10.18;6.67;;;;;;;11.94;64.83;101605.26;1800159;78;21042;-70
2021/10/03 07:44:33;;;;;;;9.55;6.65;;;;;;;12.02;64.41;101601.16;1732352;81;21473;-71
2021/10/03 07:47:00;;;;;;;9.60;6.95;;;;;;;12.11;64.34;101607.66;1759620;80;21010;-71
2021/10/03 07:49:27;;;;;;;10.18;6.58;;;;;;;12.21;64.16;101614.52;1728962;81;21368;-70
2021/10/03 07:51:53;;;;;;;14.13;7.35;;;;;;;12.27;63.35;101608.81;1776528;80;21004;-72
2021/10/03 07:54:20;;;;;;;10.95;6.85;;;;;;;12.28;63.24;101614.01;1770620;80;21000;-71
2021/10/03 07:56:46;;;;;;;10.88;7.40;;;;;;;12.32;62.30;101611.98;1771343;80;21789;-71
2021/10/03 07:59:12;;;;;;;14.15;6.97;;;;;;;12.20;62.04;101611.02;1786985;80;21467;-72
2021/10/03 08:01:39;;;;;;;10.65;6.78;;;;;;;12.15;62.30;101605.16;1765613;80;21106;-72
2021/10/03 08:04:05;;;;;;;11.60;6.60;;;;;;;12.18;62.20;101613.40;1773612;80;20984;-72
2021/10/03 08:06:32;;;;;;;9.48;6.65;;;;;;;12.30;62.19;101611.25;1756685;81;21027;-72
2021/10/03 08:08:58;;;;;;;10.23;6.30;;;;;;;12.47;61.59;101612.77;1756839;80;22195;-74
2021/10/03 08:11:25;;;;;;;9.35;6.47;;;;;;;12.59;61.46;101617.23;1751653;81;21063;-71
2021/10/03 08:13:52;;;;;;;9.00;6.80;;;;;;;12.71;61.34;101612.89;1740198;81;20993;-71
2021/10/03 08:16:20;;;;;;;9.03;6.08;;;;;;;12.80;60.34;101610.45;1747774;81;21343;-71
2021/10/03 08:18:48;;;;;;;8.40;6.05;;;;;;;12.84;60.21;101607.98;1750617;81;21069;-70
2021/10/03 08:21:15;;;;;;;7.72;5.85;;;;;;;12.88;59.82;101605.47;1753059;81;21836;-70
2021/10/03 08:23:42;;;;;;;10.23;6.45;;;;;;;12.95;59.98;101611.21;1740836;81;21518;-72
2021/10/03 08:26:09;;;;;;;8.75;6.53;;;;;;;13.06;59.40;101612.63;1739634;81;21648;-72
2021/10/03 08:28:35;;;;;;;7.92;6.05;;;;;;;13.13;59.26;101611.25;1759837;80;21071;-72
2021/10/03 08:31:02;;;;;;;9.48;6.10;;;;;;;13.20;59.57;101608.18;1736050;82;21050;-71
2021/10/03 08:33:28;;;;;;;10.43;5.62;;;;;;;13.28;58.82;101606.68;1736395;81;21804;-71
2021/10/03 08:35:55;;;;;;;8.60;6.25;;;;;;;13.38;58.83;101606.39;1747905;81;21035;-71
2021/10/03 08:38:22;;;;;;;9.78;6.55;;;;;;;13.52;58.84;101605.42;1747395;80;21007;-71
2021/10/03 08:40:50;;;;;;;8.90;5.87;;;;;;;13.65;58.44;101608.02;1818370;78;20995;-70
2021/10/03 08:43:18;;;;;;;8.20;5.83;;;;;;;13.66;57.46;101607.06;1813724;78;22325;-73
2021/10/03 08:45:44;;;;;;;9.43;6.55;;;;;;;13.55;56.95;101610.50;1723306;81;21858;-74
2021/10/03 08:48:13;;;;;;;8.70;5.85;;;;;;;13.47;57.24;101611.52;1758911;81;21468;-73
2021/10/03 08:50:41;;;;;;;10.18;5.33;;;;;;;13.55;57.91;101609.66;1742506;81;21024;-75
2021/10/03 08:53:07;;;;;;;9.08;5.58;;;;;;;13.71;58.14;101605.78;1737392;81;21065;-73
2021/10/03 08:55:35;;;;;;;7.55;4.97;;;;;;;13.90;57.31;101609.27;1740044;81;21022;-75
2021/10/03 08:58:01;;;;;;;7.72;4.92;;;;;;;14.04;56.01;101602.43;1748458;81;22266;-75
2021/10/03 09:00:28;;;;;;;8.05;5.10;;;;;;;14.15;55.30;101602.11;1749203;81;20999;-74
2021/10/03 09:03:07;;;;;;;8.33;4.87;;;;;;;14.20;55.02;101594.17;1753551;81;21526;-73
2021/10/03 09:05:37;;;;;;;5.78;4.17;;;;;;;14.22;54.63;101598.04;1741553;81;21071;-73
2021/10/03 09:08:17;;;;;;;5.95;4.00;;;;;;;14.32;53.87;101602.54;1746903;81;20983;-73
2021/10/03 09:11:00;;;;;;;7.20;4.15;;;;;;;14.42;52.95;101596.53;1747723;81;21832;-72
2021/10/03 09:13:38;;;;;;;5.87;4.28;;;;;;;14.53;53.00;101601.91;1795408;78;21640;-70
2021/10/03 09:16:24;;;;;;;6.28;4.17;;;;;;;14.68;52.70;101592.76;1814687;78;21057;-71
2021/10/03 09:19:02;;;;;;;9.00;3.12;;;;;;;14.82;52.51;101592.52;1800532;78;21003;-70
2021/10/03 09:21:40;;;;;;;4.83;2.50;;;;;;;14.98;50.43;101587.34;1728569;81;21454;-72
2021/10/03 09:24:16;;;;;;;4.35;2.98;;;;;;;15.03;48.94;101589.14;1748021;80;21886;-72
2021/10/03 09:27:08;;;;;;;4.53;2.50;;;;;;;15.11;48.91;101581.41;1753174;80;20940;-72
2021/10/03 09:29:36;;;;;;;5.90;2.95;;;;;;;15.27;48.63;101583.22;1822840;78;21070;-74
2021/10/03 09:32:20;;;;;;;6.50;2.65;;;;;;;15.37;47.93;101576.19;1813328;78;21327;-74
2021/10/03 09:34:51;;;;;;;4.50;2.50;;;;;;;15.54;47.58;101581.48;1802851;78;21046;-72
2021/10/03 09:37:28;;;;;;;5.28;2.50;;;;;;;15.71;45.63;101576.97;1759834;81;21902;-72
2021/10/03 09:40:12;;;;;;;7.15;2.30;;;;;;;15.86;44.90;101570.04;1762376;80;20942;-71
2021/10/03 09:42:39;;;;;;;4.03;2.50;;;;;;;16.06;45.02;101576.37;1759742;80;20995;-72
2021/10/03 09:45:11;;;;;;;5.97;2.55;;;;;;;16.25;43.59;101572.52;1818164;78;21078;-72
2021/10/03 09:47:39;;;;;;;3.42;2.22;;;;;;;16.34;43.33;101567.75;1815559;78;20983;-73
2021/10/03 09:50:07;;;;;;;9.40;2.80;;;;;;;16.41;42.20;101564.93;1825525;78;21776;-74
2021/10/03 09:52:38;;;;;;;2.85;2.30;;;;;;;16.37;41.31;101566.15;1825831;78;20998;-72
2021/10/03 09:55:05;;;;;;;5.45;2.20;;;;;;;16.38;42.16;101567.84;1826035;78;21026;-73
2021/10/03 09:57:32;;;;;;;4.30;2.27;;;;;;;16.47;41.07;101564.39;1825558;78;21479;-74
2021/10/03 09:59:59;;;;;;;3.87;2.10;;;;;;;16.53;40.49;101555.87;1825969;78;21034;-73
2021/10/03 10:02:26;;;;;;;4.15;2.60;;;;;;;16.59;41.49;101562.48;1826493;77;22707;-73
2021/10/03 10:04:52;;;;;;;4.45;2.77;;;;;;;16.72;41.45;101556.50;1796751;78;20983;-73
2021/10/03 10:07:19;;;;;;;5.22;2.30;;;;;;;16.94;41.54;101556.80;1781677;80;20972;-73
2021/10/03 10:09:47;;;;;;;5.28;2.10;;;;;;;17.14;40.85;101550.55;1747682;81;21585;-73
2021/10/03 10:12:21;;;;;;;4.97;2.17;;;;;;;17.33;39.98;101556.94;1756641;81;21392;-72
2021/10/03 10:15:00;;;;;;;5.17;2.30;;;;;;;17.44;38.58;101550.14;1756475;80;20972;-73
2021/10/03 10:17:38;;;;;;;4.28;2.42;;;;;;;17.39;38.75;101549.72;1748315;81;20999;-73
2021/10/03 10:20:27;;;;;;;3.83;2.22;;;;;;;17.27;38.19;101546.30;1740662;81;20964;-73
2021/10/03 10:22:58;;;;;;;4.60;3.05;;;;;;;17.24;38.81;101552.41;1735012;81;20948;-74
2021/10/03 10:25:47;;;;;;;4.87;2.40;;;;;;;17.26;38.44;101545.10;1734876;82;20928;-73
2021/10/03 10:28:34;;;;;;;4.12;2.55;;;;;;;17.20;38.44;101539.83;1734011;82;22236;-72
2021/10/03 10:31:17;;;;;;;4.62;2.45;;;;;;;17.12;38.65;101545.84;1742651;81;20995;-73
2021/10/03 10:33:57;;;;;;;4.97;2.47;;;;;;;17.14;38.64;101545.70;1736724;81;21133;-74
2021/10/03 10:36:30;;;;;;;3.20;2.60;;;;;;;17.19;38.68;101547.49;1764614;81;20948;-73
2021/10/03 10:39:15;;;;;;;6.00;2.60;;;;;;;17.16;38.77;101544.58;1765611;81;21038;-73
2021/10/03 10:41:48;;;;;;;5.25;2.33;;;;;;;17.26;39.50;101539.77;1765063;81;21050;-74
2021/10/03 10:44:28;;;;;;;3.77;2.20;;;;;;;17.42;36.79;101538.27;1765255;80;20948;-73
2021/10/03 10:47:09;;;;;;;4.15;2.60;;;;;;;17.40;37.03;101547.41;1740863;81;20864;-74
2021/10/03 10:49:55;;;;;;;15.63;2.83;;;;;;;17.40;37.75;101540.23;1735050;82;21471;-74
2021/10/03 10:52:25;;;;;;;5.78;2.62;;;;;;;17.57;38.87;101537.88;1736042;81;21071;-74
2021/10/03 10:55:21;;;;;;;5.58;2.72;;;;;;;17.84;38.28;101540.72;1734928;82;21857;-74
2021/10/03 10:57:57;;;;;;;4.67;2.80;;;;;;;18.12;37.79;101538.17;1742529;81;21047;-74
2021/10/03 11:00:26;;;;;;;5.75;2.77;;;;;;;18.32;37.60;101539.83;1740640;81;21505;-75
2021/10/03 11:03:03;;;;;;;6.17;2.70;;;;;;;18.45;36.54;101534.19;1734627;82;20960;-74
2021/10/03 11:05:40;;;;;;;4.70;2.50;;;;;;;18.51;36.52;101528.24;1740809;80;20980;-74
2021/10/03 11:08:21;;;;;;;4.05;2.40;;;;;;;18.57;35.84;101524.50;1735787;81;22214;-74
2021/10/03 11:11:09;;;;;;;4.20;2.47;;;;;;;18.56;35.34;101519.30;1734892;82;21522;-74
2021/10/03 11:13:46;;;;;;;6.10;2.30;;;;;;;18.45;35.69;101520.32;1734399;82;20984;-74
2021/10/03 11:16:29;;;;;;;3.92;2.55;;;;;;;18.39;36.24;101524.06;1740831;81;20959;-74
2021/10/03 11:19:00;;;;;;;3.70;2.30;;;;;;;18.49;36.08;101527.06;1735018;82;21051;-74
2021/10/03 11:21:30;;;;;;;4.78;2.67;;;;;;;18.64;35.88;101523.44;1735096;81;21863;-74
2021/10/03 11:23:59;;;;;;;6.12;2.42;;;;;;;18.81;35.72;101527.19;1734736;81;21046;-73
2021/10/03 11:26:26;;;;;;;3.70;2.45;;;;;;;18.98;36.13;101524.23;1743567;80;20952;-73
2021/10/03 11:28:55;;;;;;;7.92;2.47;;;;;;;19.28;35.48;101529.27;1735333;82;20947;-73
2021/10/03 11:31:47;;;;;;;8.05;2.75;;;;;;;19.39;34.73;101526.38;1735015;82;20975;-73